createdAt,value
2019-03-28T00:01:00.531Z,5.30
2019-03-28T00:03:33.431Z,5.67
2019-03-28T00:06:06.444Z,5.10
2019-03-28T00:08:39.678Z,5.23
2019-03-28T00:11:12.599Z,5.67
2019-03-28T00:13:45.430Z,5.70
2019-03-28T00:16:18.209Z,5.60
2019-03-28T00:18:50.977Z,5.30
2019-03-28T00:21:23.767Z,5.40
2019-03-28T00:24:14.177Z,4.87
2019-03-28T00:26:47.093Z,5.67
2019-03-28T00:29:20.023Z,5.43
2019-03-28T00:31:52.755Z,5.00
2019-03-28T00:34:25.512Z,5.00
2019-03-28T00:36:58.566Z,5.10
2019-03-28T00:39:31.363Z,4.83
2019-03-28T00:42:04.122Z,4.93
2019-03-28T00:44:36.968Z,4.63
2019-03-28T00:47:09.726Z,4.93
2019-03-28T00:49:43.196Z,4.40
2019-03-28T00:52:16.233Z,5.20
2019-03-28T00:54:49.207Z,4.67
2019-03-28T00:57:21.903Z,4.63
2019-03-28T00:59:54.893Z,4.57
2019-03-28T01:02:27.790Z,4.90
2019-03-28T01:05:00.709Z,4.50
2019-03-28T01:07:33.474Z,4.93
2019-03-28T01:10:06.841Z,4.80
2019-03-28T01:12:39.652Z,4.80
2019-03-28T01:15:12.687Z,4.73
2019-03-28T01:17:45.441Z,4.83
2019-03-28T01:20:18.941Z,4.47
2019-03-28T01:22:51.726Z,4.77
2019-03-28T01:25:24.640Z,5.50
2019-03-28T01:27:57.557Z,4.73
2019-03-28T01:30:30.377Z,4.83
2019-03-28T01:33:03.297Z,4.80
2019-03-28T01:35:36.070Z,5.00
2019-03-28T01:38:08.741Z,5.23
2019-03-28T01:40:41.512Z,4.70
2019-03-28T01:43:14.308Z,4.70
2019-03-28T01:45:47.015Z,5.10
2019-03-28T01:48:20.231Z,5.13
2019-03-28T01:50:53.184Z,4.50
2019-03-28T01:53:26.101Z,5.00
2019-03-28T01:55:58.878Z,4.90
2019-03-28T01:58:31.804Z,5.13
2019-03-28T02:01:05.010Z,5.00
2019-03-28T02:03:37.864Z,5.00
2019-03-28T02:06:10.643Z,5.53
2019-03-28T02:08:43.452Z,5.07
2019-03-28T02:11:16.509Z,5.37
2019-03-28T02:13:49.626Z,5.40
2019-03-28T02:16:22.622Z,4.50
2019-03-28T02:18:55.696Z,5.00
2019-03-28T02:21:28.891Z,5.00
2019-03-28T02:24:01.560Z,4.70
2019-03-28T02:26:34.454Z,4.00
2019-03-28T02:29:07.362Z,5.20
2019-03-28T02:31:40.126Z,5.13
2019-03-28T02:34:12.902Z,5.03
2019-03-28T02:36:45.755Z,5.23
2019-03-28T02:39:18.643Z,6.30
2019-03-28T02:41:51.476Z,7.80
2019-03-28T02:44:24.311Z,7.77
2019-03-28T02:46:57.117Z,7.30
2019-03-28T02:49:29.920Z,6.70
2019-03-28T02:52:02.691Z,6.60
2019-03-28T02:54:35.602Z,7.20
2019-03-28T02:57:08.846Z,6.07
2019-03-28T02:59:41.678Z,5.60
2019-03-28T03:02:14.457Z,5.30
2019-03-28T03:04:47.445Z,5.70
2019-03-28T03:07:20.253Z,6.30
2019-03-28T03:09:53.089Z,5.40
2019-03-28T03:12:26.042Z,6.70
2019-03-28T03:14:58.950Z,9.10
2019-03-28T03:17:31.739Z,7.53
2019-03-28T03:20:04.865Z,8.80
2019-03-28T03:22:37.815Z,11.47
2019-03-28T03:25:11.337Z,10.27
2019-03-28T03:27:57.041Z,11.80
2019-03-28T03:30:19.291Z,15.03
2019-03-28T03:32:52.270Z,18.23
2019-03-28T03:35:25.256Z,14.57
2019-03-28T03:37:58.264Z,15.77
2019-03-28T03:40:31.303Z,11.00
2019-03-28T03:43:04.109Z,6.73
2019-03-28T03:45:36.809Z,5.27
2019-03-28T03:48:09.694Z,5.17
2019-03-28T03:50:42.515Z,5.40
2019-03-28T03:53:15.421Z,5.27
2019-03-28T03:55:48.298Z,6.00
2019-03-28T03:58:21.048Z,6.27
2019-03-28T04:00:53.759Z,5.90
2019-03-28T04:03:26.511Z,5.40
2019-03-28T04:05:59.271Z,5.27
2019-03-28T04:08:32.173Z,5.43
2019-03-28T04:11:04.980Z,5.30
2019-03-28T04:13:37.756Z,5.87
2019-03-28T04:16:10.478Z,5.93
2019-03-28T04:18:43.244Z,6.13
2019-03-28T04:21:16.043Z,6.03
2019-03-28T04:23:48.773Z,6.67
2019-03-28T04:26:21.490Z,6.73
2019-03-28T04:28:54.259Z,6.80
2019-03-28T04:31:27.216Z,7.43
2019-03-28T04:34:06.994Z,7.40
2019-03-28T04:36:34.805Z,8.93
2019-03-28T04:39:08.023Z,6.90
2019-03-28T04:41:40.684Z,6.30
2019-03-28T04:44:13.550Z,7.17
2019-03-28T04:46:46.492Z,6.70
2019-03-28T04:49:19.378Z,8.50
2019-03-28T04:51:52.237Z,10.40
2019-03-28T04:54:25.138Z,10.07
2019-03-28T04:56:57.893Z,7.87
2019-03-28T04:59:30.860Z,7.67
2019-03-28T05:02:05.052Z,16.83
2019-03-28T05:04:38.265Z,13.23
2019-03-28T05:07:11.225Z,8.50
2019-03-28T05:09:44.113Z,7.53
2019-03-28T05:12:16.844Z,9.57
2019-03-28T05:14:49.717Z,9.33
2019-03-28T05:17:22.643Z,7.30
2019-03-28T05:19:55.759Z,7.40
2019-03-28T05:22:28.733Z,7.77
2019-03-28T05:25:01.685Z,7.00
2019-03-28T05:27:34.625Z,7.60
2019-03-28T05:30:09.652Z,8.50
2019-03-28T05:32:42.693Z,8.47
2019-03-28T05:35:15.894Z,9.10
2019-03-28T05:37:48.668Z,8.63
2019-03-28T05:40:22.885Z,10.77
2019-03-28T05:42:56.162Z,12.87
2019-03-28T05:45:30.158Z,14.63
2019-03-28T05:48:03.174Z,13.87
2019-03-28T05:50:36.333Z,14.23
2019-03-28T05:53:09.505Z,13.73
2019-03-28T05:55:42.565Z,13.43
2019-03-28T05:58:15.551Z,13.90
2019-03-28T06:00:51.344Z,15.37
2019-03-28T06:03:23.387Z,14.47
2019-03-28T06:05:56.644Z,13.97
2019-03-28T06:08:29.992Z,13.27
2019-03-28T06:11:03.674Z,13.47
2019-03-28T06:13:36.857Z,13.57
2019-03-28T06:16:09.899Z,14.40
2019-03-28T06:18:43.123Z,14.80
2019-03-28T06:21:16.147Z,15.00
2019-03-28T06:23:49.258Z,14.30
2019-03-28T06:26:22.343Z,16.57
2019-03-28T06:28:55.497Z,15.87
2019-03-28T06:31:28.510Z,15.53
2019-03-28T06:34:01.594Z,14.03
2019-03-28T06:36:34.631Z,15.57
2019-03-28T06:39:08.657Z,15.83
2019-03-28T06:41:44.242Z,18.33
2019-03-28T06:44:16.347Z,18.50
2019-03-28T06:46:49.395Z,18.87
2019-03-28T06:49:22.599Z,19.20
2019-03-28T06:51:55.483Z,21.27
2019-03-28T06:54:28.854Z,20.37
2019-03-28T06:57:02.046Z,19.63
2019-03-28T06:59:37.564Z,20.47
2019-03-28T07:02:10.140Z,20.70
2019-03-28T07:04:43.151Z,21.50
2019-03-28T07:07:18.443Z,21.13
2019-03-28T07:09:51.390Z,22.80
2019-03-28T07:12:24.486Z,22.43
2019-03-28T07:14:59.532Z,22.23
2019-03-28T07:17:32.578Z,22.30
2019-03-28T07:20:08.974Z,20.47
2019-03-28T07:22:41.502Z,20.07
2019-03-28T07:25:14.929Z,20.23
2019-03-28T07:27:48.164Z,19.20
2019-03-28T07:30:22.744Z,19.73
2019-03-28T07:32:55.969Z,19.27
2019-03-28T07:35:28.921Z,19.60
2019-03-28T07:38:01.820Z,19.23
2019-03-28T07:40:34.855Z,17.97
2019-03-28T07:43:07.993Z,17.07
2019-03-28T07:45:41.136Z,16.50
2019-03-28T07:48:14.259Z,17.10
2019-03-28T07:50:47.372Z,16.40
2019-03-28T07:53:21.473Z,16.33
2019-03-28T07:55:54.867Z,15.53
2019-03-28T07:58:28.007Z,16.23
2019-03-28T08:01:01.359Z,15.30
2019-03-28T08:03:34.459Z,15.33
2019-03-28T08:06:07.595Z,15.33
2019-03-28T08:08:43.995Z,15.00
2019-03-28T08:11:15.464Z,14.93
2019-03-28T08:13:48.752Z,14.73
2019-03-28T08:16:21.913Z,13.57
2019-03-28T08:18:55.214Z,13.57
2019-03-28T08:21:28.350Z,13.97
2019-03-28T08:24:01.487Z,12.67
2019-03-28T08:26:34.654Z,13.03
2019-03-28T08:29:07.758Z,11.60
2019-03-28T08:31:43.727Z,12.90
2019-03-28T08:34:17.117Z,13.27
2019-03-28T08:36:51.627Z,14.17
2019-03-28T08:39:26.894Z,12.30
2019-03-28T08:42:00.130Z,12.53
2019-03-28T08:44:33.559Z,12.97
2019-03-28T08:47:06.762Z,13.47
2019-03-28T08:49:39.777Z,12.67
2019-03-28T08:52:13.113Z,14.40
2019-03-28T08:54:46.131Z,13.03
2019-03-28T08:57:19.133Z,14.10
2019-03-28T08:59:52.269Z,14.20
2019-03-28T09:02:25.309Z,12.77
2019-03-28T09:04:58.439Z,12.70
2019-03-28T09:07:31.503Z,11.77
2019-03-28T09:10:04.963Z,12.33
2019-03-28T09:12:40.216Z,11.80
2019-03-28T09:15:15.107Z,13.37
2019-03-28T09:17:48.315Z,12.83
2019-03-28T09:20:21.458Z,11.00
2019-03-28T09:22:54.621Z,11.97
2019-03-28T09:25:27.702Z,11.37
2019-03-28T09:28:00.708Z,11.77
2019-03-28T09:30:49.376Z,11.00
2019-03-28T09:33:19.395Z,10.60
2019-03-28T09:35:52.681Z,11.40
2019-03-28T09:38:26.103Z,10.77
2019-03-28T09:40:59.188Z,9.90
2019-03-28T09:43:32.354Z,10.43
2019-03-28T09:46:05.613Z,10.97
2019-03-28T09:48:40.637Z,10.07
2019-03-28T09:51:16.252Z,10.90
2019-03-28T09:53:49.402Z,10.60
2019-03-28T09:56:22.409Z,10.23
2019-03-28T09:58:55.525Z,10.87
2019-03-28T10:01:28.603Z,10.33
2019-03-28T10:04:01.550Z,9.30
2019-03-28T10:06:34.762Z,9.97
2019-03-28T10:09:09.379Z,9.60
2019-03-28T10:11:42.671Z,9.67
2019-03-28T10:14:15.747Z,9.43
2019-03-28T10:16:48.887Z,8.93
2019-03-28T10:19:21.908Z,9.60
2019-03-28T10:21:55.059Z,9.80
2019-03-28T10:24:28.258Z,10.43
2019-03-28T10:27:01.909Z,10.23
2019-03-28T10:29:35.009Z,10.17
2019-03-28T10:32:08.186Z,9.23
2019-03-28T10:34:41.357Z,8.63
2019-03-28T10:37:14.409Z,8.90
2019-03-28T10:39:47.511Z,9.90
2019-03-28T10:42:20.669Z,9.30
2019-03-28T10:44:53.824Z,9.80
2019-03-28T10:47:27.304Z,9.80
2019-03-28T10:50:03.736Z,9.47
2019-03-28T10:52:35.363Z,9.00
2019-03-28T10:55:09.168Z,9.37
2019-03-28T10:57:42.157Z,8.67
2019-03-28T11:00:24.011Z,10.07
2019-03-28T11:02:50.793Z,9.00
2019-03-28T11:05:24.602Z,8.93
2019-03-28T11:07:57.752Z,8.80
2019-03-28T11:10:30.787Z,8.90
2019-03-28T11:13:03.832Z,8.80
2019-03-28T11:15:36.936Z,9.37
2019-03-28T11:18:10.082Z,8.13
2019-03-28T11:20:43.274Z,9.13
2019-03-28T11:23:16.502Z,9.47
2019-03-28T11:25:49.566Z,8.60
2019-03-28T11:28:23.491Z,8.70
2019-03-28T11:30:56.920Z,8.33
2019-03-28T11:33:29.913Z,9.43
2019-03-28T11:36:03.042Z,8.60
2019-03-28T11:38:36.313Z,8.07
2019-03-28T11:41:09.507Z,8.73
2019-03-28T11:43:42.606Z,7.80
2019-03-28T11:46:15.819Z,8.53
2019-03-28T11:48:48.803Z,8.87
2019-03-28T11:51:21.896Z,8.53
2019-03-28T11:53:55.317Z,8.10
2019-03-28T11:56:28.339Z,8.30
2019-03-28T11:59:04.347Z,9.17
2019-03-28T12:01:36.239Z,8.43
2019-03-28T12:04:09.329Z,8.00
2019-03-28T12:06:42.412Z,7.67
2019-03-28T12:09:15.412Z,7.67
2019-03-28T12:11:48.481Z,7.70
2019-03-28T12:14:21.596Z,8.57
2019-03-28T12:16:54.564Z,8.30
2019-03-28T12:19:27.608Z,8.00
2019-03-28T12:22:00.729Z,7.00
2019-03-28T12:24:33.813Z,8.03
2019-03-28T12:27:07.094Z,7.90
2019-03-28T12:29:40.204Z,7.80
2019-03-28T12:32:14.656Z,7.60
2019-03-28T12:34:48.160Z,7.67
2019-03-28T12:37:21.303Z,8.23
2019-03-28T12:39:54.390Z,8.60
2019-03-28T12:42:27.439Z,11.80
2019-03-28T12:45:00.529Z,7.30
2019-03-28T12:47:42.461Z,7.77
2019-03-28T12:50:10.247Z,8.53
2019-03-28T12:52:43.402Z,8.43
2019-03-28T12:55:17.473Z,8.30
2019-03-28T12:57:50.682Z,7.80
2019-03-28T13:00:36.162Z,7.07
2019-03-28T13:03:09.488Z,8.07
2019-03-28T13:05:42.606Z,7.87
2019-03-28T13:08:15.997Z,8.47
2019-03-28T13:10:49.192Z,7.57
2019-03-28T13:13:22.519Z,7.57
2019-03-28T13:15:55.735Z,9.10
2019-03-28T13:18:28.762Z,7.47
2019-03-28T13:21:12.812Z,7.10
2019-03-28T13:23:36.996Z,7.50
2019-03-28T13:26:10.199Z,7.83
2019-03-28T13:28:43.386Z,8.77
2019-03-28T13:31:16.781Z,7.60
2019-03-28T13:33:49.966Z,9.00
2019-03-28T13:36:23.152Z,9.40
2019-03-28T13:38:56.945Z,7.37
2019-03-28T13:41:30.176Z,7.20
2019-03-28T13:44:03.497Z,7.10
2019-03-28T13:46:36.629Z,10.30
2019-03-28T13:49:09.868Z,16.33
2019-03-28T13:51:43.140Z,48.70
2019-03-28T13:54:16.245Z,14.43
2019-03-28T13:56:49.674Z,8.73
2019-03-28T13:59:22.954Z,8.47
2019-03-28T14:01:56.320Z,9.33
2019-03-28T14:04:29.762Z,9.17
2019-03-28T14:07:03.084Z,7.60
2019-03-28T14:09:36.813Z,8.83
2019-03-28T14:12:10.033Z,11.27
2019-03-28T14:14:43.072Z,12.10
2019-03-28T14:17:16.222Z,10.57
2019-03-28T14:19:49.602Z,9.27
2019-03-28T14:22:22.595Z,8.73
2019-03-28T14:24:55.720Z,7.33
2019-03-28T14:27:29.023Z,7.60
2019-03-28T14:30:02.255Z,8.30
2019-03-28T14:32:35.381Z,7.10
2019-03-28T14:35:08.641Z,7.17
2019-03-28T14:37:41.842Z,7.73
2019-03-28T14:40:15.629Z,4.83
2019-03-28T14:42:48.910Z,6.80
2019-03-28T14:45:22.031Z,6.40
2019-03-28T14:47:55.138Z,6.00
2019-03-28T14:50:40.897Z,5.07
2019-03-28T14:53:14.199Z,5.20
2019-03-28T14:55:47.534Z,7.50
2019-03-28T14:58:23.060Z,10.53
2019-03-28T15:00:56.652Z,8.43
2019-03-28T15:03:29.834Z,5.53
2019-03-28T15:06:02.992Z,6.70
2019-03-28T15:08:35.979Z,5.40
2019-03-28T15:11:09.193Z,5.90
2019-03-28T15:13:42.390Z,6.17
2019-03-28T15:16:15.692Z,5.70
2019-03-28T15:18:48.962Z,5.60
2019-03-28T15:21:22.048Z,6.13
2019-03-28T15:23:55.267Z,5.97
2019-03-28T15:26:30.266Z,5.90
2019-03-28T15:29:03.379Z,7.53
2019-03-28T15:31:36.770Z,6.30
2019-03-28T15:34:10.008Z,6.97
2019-03-28T15:36:43.196Z,6.23
2019-03-28T15:39:16.412Z,7.37
2019-03-28T15:41:49.590Z,7.63
2019-03-28T15:44:22.777Z,14.37
2019-03-28T15:46:56.060Z,11.90
2019-03-28T15:49:29.345Z,12.67
2019-03-28T15:52:03.423Z,9.73
2019-03-28T15:54:36.864Z,9.30
2019-03-28T15:57:11.163Z,8.97
2019-03-28T15:59:44.357Z,8.67
2019-03-28T16:02:17.759Z,10.17
2019-03-28T16:04:51.230Z,8.87
2019-03-28T16:07:24.401Z,7.50
2019-03-28T16:09:58.129Z,7.63
2019-03-28T16:12:31.331Z,7.73
2019-03-28T16:15:04.722Z,7.10
2019-03-28T16:17:38.287Z,7.53
2019-03-28T16:20:12.703Z,7.67
2019-03-28T16:22:45.741Z,7.83
2019-03-28T16:25:18.769Z,8.00
2019-03-28T16:27:51.951Z,7.33
2019-03-28T16:30:39.907Z,7.40
2019-03-28T16:33:13.106Z,15.53
2019-03-28T16:35:46.203Z,10.70
2019-03-28T16:38:19.646Z,10.97
2019-03-28T16:40:52.783Z,10.23
2019-03-28T16:43:26.059Z,13.00
2019-03-28T16:45:59.470Z,13.83
2019-03-28T16:48:32.950Z,15.00
2019-03-28T16:51:06.376Z,12.20
2019-03-28T16:53:39.456Z,12.57
2019-03-28T16:56:12.641Z,11.03
2019-03-28T16:58:46.582Z,10.57
2019-03-28T17:01:19.723Z,10.30
2019-03-28T17:03:52.888Z,8.77
2019-03-28T17:06:26.983Z,11.23
2019-03-28T17:09:01.361Z,10.50
2019-03-28T17:11:34.655Z,10.70
2019-03-28T17:14:08.283Z,11.20
2019-03-28T17:16:44.572Z,16.60
2019-03-28T17:19:17.818Z,14.73
2019-03-28T17:21:51.009Z,13.90
2019-03-28T17:24:24.480Z,16.33
2019-03-28T17:26:58.059Z,22.17
2019-03-28T17:29:34.078Z,17.37
2019-03-28T17:32:07.299Z,14.67
2019-03-28T17:34:40.487Z,12.43
2019-03-28T17:37:13.857Z,16.60
2019-03-28T17:39:47.117Z,18.73
2019-03-28T17:42:20.510Z,17.17
2019-03-28T17:44:53.863Z,21.17
2019-03-28T17:47:27.195Z,17.97
2019-03-28T17:50:00.772Z,17.90
2019-03-28T17:52:34.094Z,18.60
2019-03-28T17:55:07.699Z,17.83
2019-03-28T17:57:41.322Z,18.27
2019-03-28T18:00:14.942Z,16.60
2019-03-28T18:02:48.571Z,14.33
2019-03-28T18:05:22.183Z,16.77
2019-03-28T18:07:56.097Z,19.50
2019-03-28T18:10:29.781Z,18.90
2019-03-28T18:13:03.601Z,17.77
2019-03-28T18:15:37.240Z,16.87
2019-03-28T18:18:12.024Z,16.53
2019-03-28T18:20:45.750Z,16.27
2019-03-28T18:23:19.291Z,17.80
2019-03-28T18:25:52.519Z,19.63
2019-03-28T18:28:26.237Z,46.43
2019-03-28T18:30:59.907Z,24.93
2019-03-28T18:33:33.225Z,22.97
2019-03-28T18:36:06.546Z,23.57
2019-03-28T18:38:40.163Z,18.37
2019-03-28T18:41:13.856Z,18.10
2019-03-28T18:43:48.224Z,15.97
2019-03-28T18:46:23.079Z,18.03
2019-03-28T18:48:58.751Z,12.87
2019-03-28T18:51:31.977Z,15.90
2019-03-28T18:54:06.905Z,12.83
2019-03-28T18:56:41.292Z,13.20
2019-03-28T18:59:16.355Z,14.03
2019-03-28T19:01:49.825Z,14.23
2019-03-28T19:04:23.165Z,15.53
2019-03-28T19:06:58.012Z,13.07
2019-03-28T19:09:33.449Z,13.53
2019-03-28T19:12:06.860Z,11.70
2019-03-28T19:14:40.327Z,11.80
2019-03-28T19:17:14.116Z,13.23
2019-03-28T19:19:47.618Z,11.53
2019-03-28T19:22:22.300Z,12.20
2019-03-28T19:24:55.525Z,13.70
2019-03-28T19:27:30.315Z,13.47
2019-03-28T19:30:04.075Z,12.83
2019-03-28T19:32:37.781Z,11.90
2019-03-28T19:35:12.488Z,11.30
2019-03-28T19:37:47.650Z,10.83
2019-03-28T19:40:21.417Z,10.27
2019-03-28T19:42:54.769Z,11.60
2019-03-28T19:45:41.497Z,10.83
2019-03-28T19:48:14.747Z,11.07
2019-03-28T19:50:48.063Z,9.83
2019-03-28T19:53:21.358Z,9.57
2019-03-28T19:55:54.961Z,10.80
2019-03-28T19:58:28.810Z,13.60
2019-03-28T20:01:02.159Z,15.03
2019-03-28T20:03:36.628Z,11.17
2019-03-28T20:06:21.532Z,12.07
2019-03-28T20:08:45.323Z,11.17
2019-03-28T20:11:18.923Z,10.10
2019-03-28T20:13:53.480Z,10.40
2019-03-28T20:16:27.193Z,10.30
2019-03-28T20:19:02.123Z,11.17
2019-03-28T20:21:35.595Z,11.77
2019-03-28T20:24:08.987Z,10.30
2019-03-28T20:26:42.277Z,12.43
2019-03-28T20:29:15.603Z,11.30
2019-03-28T20:31:49.074Z,10.60
2019-03-28T20:34:22.602Z,12.03
2019-03-28T20:36:55.940Z,11.57
2019-03-28T20:39:29.109Z,12.50
2019-03-28T20:42:07.201Z,15.77
2019-03-28T20:44:40.764Z,13.80
2019-03-28T20:47:15.501Z,14.13
2019-03-28T20:49:49.656Z,13.27
2019-03-28T20:52:25.250Z,14.07
2019-03-28T20:54:59.572Z,12.77
2019-03-28T20:57:33.029Z,12.77
2019-03-28T21:00:08.500Z,9.97
2019-03-28T21:02:42.104Z,8.40
2019-03-28T21:05:15.613Z,8.50
2019-03-28T21:07:48.900Z,16.40
2019-03-28T21:10:33.037Z,11.23
2019-03-28T21:13:03.690Z,10.13
2019-03-28T21:15:37.123Z,8.77
2019-03-28T21:18:10.680Z,8.50
2019-03-28T21:20:44.265Z,9.93
2019-03-28T21:23:17.770Z,10.17
2019-03-28T21:25:50.984Z,7.63
2019-03-28T21:28:25.167Z,7.30
2019-03-28T21:30:59.255Z,10.87
2019-03-28T21:33:34.791Z,10.10
2019-03-28T21:36:08.347Z,9.83
2019-03-28T21:38:41.426Z,9.27
2019-03-28T21:41:14.631Z,8.67
2019-03-28T21:43:47.689Z,7.70
2019-03-28T21:46:20.766Z,7.70
2019-03-28T21:48:53.736Z,7.27
2019-03-28T21:51:26.914Z,6.67
2019-03-28T21:53:59.808Z,7.73
2019-03-28T21:56:32.701Z,7.37
2019-03-28T21:59:05.958Z,6.83
2019-03-28T22:01:39.073Z,7.57
2019-03-28T22:04:12.162Z,7.50
2019-03-28T22:06:45.542Z,6.87
2019-03-28T22:09:18.713Z,5.97
2019-03-28T22:11:52.101Z,6.40
2019-03-28T22:14:25.071Z,6.70
2019-03-28T22:16:58.041Z,6.10
2019-03-28T22:19:31.271Z,6.63
2019-03-28T22:22:04.914Z,5.70
2019-03-28T22:24:39.237Z,6.30
2019-03-28T22:27:12.828Z,5.97
2019-03-28T22:29:46.851Z,7.20
2019-03-28T22:32:22.991Z,6.93
2019-03-28T22:34:56.636Z,5.90
2019-03-28T22:37:29.827Z,5.20
2019-03-28T22:40:03.122Z,6.10
2019-03-28T22:42:36.331Z,6.10
2019-03-28T22:45:10.839Z,6.33
2019-03-28T22:47:43.974Z,6.73
2019-03-28T22:50:17.512Z,6.27
2019-03-28T22:52:50.942Z,7.47
2019-03-28T22:55:24.124Z,7.20
2019-03-28T22:57:57.042Z,6.27
2019-03-28T23:00:45.211Z,5.93
2019-03-28T23:03:18.945Z,6.70
2019-03-28T23:05:51.919Z,6.07
2019-03-28T23:08:24.849Z,6.80
2019-03-28T23:10:58.074Z,6.07
2019-03-28T23:13:31.304Z,5.80
2019-03-28T23:16:04.816Z,6.33
2019-03-28T23:18:38.199Z,5.80
2019-03-28T23:21:11.843Z,6.13
2019-03-28T23:23:45.109Z,5.20
2019-03-28T23:26:18.307Z,5.67
2019-03-28T23:28:51.049Z,5.57
2019-03-28T23:31:23.838Z,5.77
2019-03-28T23:33:57.153Z,6.17
2019-03-28T23:36:30.549Z,6.60
2019-03-28T23:39:04.464Z,5.70
2019-03-28T23:41:37.612Z,5.57
2019-03-28T23:44:10.785Z,6.60
2019-03-28T23:46:44.227Z,6.07
2019-03-28T23:49:17.312Z,7.20
2019-03-28T23:51:50.854Z,5.90
2019-03-28T23:54:24.484Z,6.23
2019-03-28T23:56:57.641Z,5.80
2019-03-28T23:59:31.143Z,5.23
